Alliance, OH (44601)

2:30 AM EST on December 11, 2016 (GMT -0500)
Lexington Twp | | Change Station

Elev 1083 ft 40.94 °N, 81.17 °W | Updated 3 seconds ago

Snow
Snow
23.2 °F
Feels Like 23 °F
N
1.0
Wind Variable Wind from South

Today
High -- | Low -- °F
--% Chance of Precip.
Yesterday
High -- | Low -- °F
Precip. -- in
Pressure 30.46 in
Visibility 1.0 miles
Clouds Overcast 2100 ft
Windchill 23 °F
Dew Point 19 °F
Humidity 86%
Rainfall 0.00 in
Snow Depth Not available.
7:39 AM 4:56 PM
Waxing Gibbous, 89% visible
METAR KCAK 110651Z 21005KT 1SM R23/P6000FT -SN OVC021 M05/M08 A3040 RMK AO2 TWR VIS 2 SNB15 SLP313 P0000 T10501078 $
Pressure 30.46 in
Visibility 1.0 miles
Clouds Overcast 2100 ft
Windchill 23 °F
Dew Point 19 °F
Humidity 86%
Rainfall 0.00 in
Snow Depth Not available.
7:39 AM 4:56 PM
Waxing Gibbous, 89% visible
METAR KCAK 110651Z 21005KT 1SM R23/P6000FT -SN OVC021 M05/M08 A3040 RMK AO2 TWR VIS 2 SNB15 SLP313 P0000 T10501078 $

10-Day Weather Forecast

Almanac

Astronomy

Dec. 11, 2016 Rise Set
Actual Time
Civil Twilight
Nautical Twilight
Astronomical Twilight
Moon
Length of Visible Light
Length of Day
Tomorrow will be .
, % of the Moon is Illuminated

Today's Extremes

State Highs State Lows

Community

WunderPhotos

Upload Photos

1,956,707 photos uploaded!

WunderBlog® & News

Nearby

Air Quality

  Air Quality AQ Index Pollutant
Not available.

Snow Depth

Station Depth Elevation

Earthquake Activity

City Distance Mag. Time & Date
Minimum magnitude displayed is 2.5.

Coastal Water Temperatures

Place Temperature

Stations

Nearby Weather Stations

Station Location Temp. Windchill Dew Point Humidity Wind Precip. Elev Updated Type
                   

Watches & Warnings

There are currently no watches in effect.